createdAt,value
2022-09-20T00:01:22.299Z,94.02
2022-09-20T00:03:54.496Z,93.97
2022-09-20T00:06:23.302Z,94.08
2022-09-20T00:08:50.114Z,94.06
2022-09-20T00:11:19.517Z,94.31
2022-09-20T00:13:47.436Z,94.02
2022-09-20T00:16:17.930Z,93.64
2022-09-20T00:18:48.437Z,93.45
2022-09-20T00:21:20.542Z,93.23
2022-09-20T00:23:47.017Z,93.13
2022-09-20T00:26:17.521Z,93.43
2022-09-20T00:28:44.228Z,94.06
2022-09-20T00:31:11.365Z,94.04
2022-09-20T00:33:56.416Z,94.31
2022-09-20T00:36:22.935Z,94.12
2022-09-20T00:38:49.432Z,93.90
2022-09-20T00:41:15.914Z,93.81
2022-09-20T00:43:46.486Z,93.91
2022-09-20T00:46:26.632Z,94.36
2022-09-20T00:48:57.641Z,94.35
2022-09-20T00:51:35.267Z,94.38
2022-09-20T00:54:04.566Z,94.59
2022-09-20T00:56:33.275Z,94.91
2022-09-20T00:59:08.849Z,95.54
2022-09-20T01:01:35.511Z,96.16
2022-09-20T01:04:02.665Z,96.28
2022-09-20T01:06:29.507Z,96.05
2022-09-20T01:08:58.348Z,96.79
2022-09-20T01:11:25.644Z,97.65
2022-09-20T01:13:52.171Z,97.92
2022-09-20T01:16:19.060Z,99.14
2022-09-20T01:18:46.374Z,99.43
2022-09-20T01:21:13.597Z,99.29
2022-09-20T01:23:55.002Z,99.44
2022-09-20T01:26:37.605Z,99.19
2022-09-20T01:29:23.579Z,98.58
2022-09-20T01:31:55.252Z,98.83
2022-09-20T01:34:29.774Z,98.92
2022-09-20T01:37:07.079Z,98.58
2022-09-20T01:39:55.749Z,98.58
2022-09-20T01:42:26.309Z,99.22
2022-09-20T01:45:28.919Z,99.11
2022-09-20T01:48:08.154Z,98.28
2022-09-20T01:50:54.152Z,98.22
2022-09-20T01:53:56.712Z,98.33
2022-09-20T01:56:44.351Z,98.46
2022-09-20T01:59:47.456Z,98.55
2022-09-20T02:02:47.129Z,97.96
2022-09-20T02:05:43.004Z,98.13
2022-09-20T02:08:28.128Z,97.94
2022-09-20T02:11:00.851Z,98.33
2022-09-20T02:13:38.478Z,98.25
2022-09-20T02:16:09.330Z,98.33
2022-09-20T02:18:56.780Z,97.49
2022-09-20T02:21:58.284Z,98.05
2022-09-20T02:24:33.839Z,98.34
2022-09-20T02:27:08.129Z,97.80
2022-09-20T02:30:08.929Z,97.75
2022-09-20T02:32:52.281Z,97.90
2022-09-20T02:35:26.051Z,97.12
2022-09-20T02:38:19.290Z,96.10
2022-09-20T02:41:04.700Z,95.68
2022-09-20T02:43:49.741Z,94.70
2022-09-20T02:46:37.903Z,95.17
2022-09-20T02:49:13.696Z,95.11
2022-09-20T02:51:50.012Z,94.99
2022-09-20T02:54:30.685Z,95.54
2022-09-20T02:57:04.074Z,95.91
2022-09-20T02:59:45.645Z,96.21
2022-09-20T03:02:43.893Z,96.30
2022-09-20T03:05:39.706Z,96.62
2022-09-20T03:08:47.773Z,96.13
2022-09-20T03:11:30.858Z,95.95
2022-09-20T03:14:11.691Z,96.20
2022-09-20T03:16:56.904Z,96.79
2022-09-20T03:19:55.766Z,96.28
2022-09-20T03:22:41.860Z,95.42
2022-09-20T03:25:32.605Z,94.75
2022-09-20T03:28:38.227Z,93.83
2022-09-20T03:31:45.721Z,93.83
2022-09-20T03:34:23.975Z,93.86
2022-09-20T03:37:13.702Z,94.31
2022-09-20T03:39:56.433Z,95.23
2022-09-20T03:42:27.161Z,95.56
2022-09-20T03:45:12.312Z,95.51
2022-09-20T03:48:11.399Z,95.96
2022-09-20T03:50:54.407Z,96.49
2022-09-20T03:53:40.668Z,96.71
2022-09-20T03:56:31.448Z,97.01
2022-09-20T03:59:23.006Z,97.39
2022-09-20T04:02:10.305Z,98.13
2022-09-20T04:04:45.771Z,98.14
2022-09-20T04:07:18.154Z,97.88
2022-09-20T04:10:13.745Z,97.63
2022-09-20T04:12:54.743Z,97.50
2022-09-20T04:15:51.756Z,96.94
2022-09-20T04:18:30.736Z,96.21
2022-09-20T04:21:03.922Z,95.86
2022-09-20T04:23:54.306Z,94.84
2022-09-20T04:26:26.043Z,94.54
2022-09-20T04:29:21.676Z,94.29
2022-09-20T04:32:07.556Z,94.63
2022-09-20T04:35:22.841Z,94.78
2022-09-20T04:37:49.923Z,94.96
2022-09-20T04:40:34.586Z,95.55
2022-09-20T04:43:10.091Z,96.49
2022-09-20T04:45:55.011Z,96.49
2022-09-20T04:48:32.044Z,97.06
2022-09-20T04:51:24.678Z,96.54
2022-09-20T04:54:28.758Z,96.84
2022-09-20T04:57:24.763Z,97.19
2022-09-20T05:00:04.442Z,97.44
2022-09-20T05:02:55.115Z,97.26
2022-09-20T05:05:49.217Z,97.95
2022-09-20T05:08:33.931Z,97.79
2022-09-20T05:11:30.604Z,97.60
2022-09-20T05:14:01.006Z,97.78
2022-09-20T05:16:50.741Z,98.41
2022-09-20T05:19:26.412Z,98.72
2022-09-20T05:22:26.389Z,99.56
2022-09-20T05:25:22.210Z,99.56
2022-09-20T05:28:07.525Z,99.90
2022-09-20T05:30:54.085Z,99.66
2022-09-20T05:33:32.197Z,99.12
2022-09-20T05:36:14.655Z,99.48
2022-09-20T05:38:56.401Z,99.31
2022-09-20T05:41:38.813Z,99.21
2022-09-20T05:44:47.489Z,99.83
2022-09-20T05:47:20.455Z,100.00
2022-09-20T05:49:58.895Z,100.00
2022-09-20T05:52:43.043Z,100.00
2022-09-20T05:55:28.845Z,99.01
2022-09-20T05:58:21.263Z,97.37
2022-09-20T06:01:06.881Z,94.24
2022-09-20T06:03:54.404Z,90.88
2022-09-20T06:06:45.270Z,86.78
2022-09-20T06:09:34.708Z,85.04
2022-09-20T06:12:46.408Z,82.71
2022-09-20T06:15:36.656Z,80.21
2022-09-20T06:18:16.554Z,77.42
2022-09-20T06:21:01.455Z,76.22
2022-09-20T06:23:27.980Z,75.30
2022-09-20T06:26:07.716Z,76.11
2022-09-20T06:28:38.532Z,77.92
2022-09-20T06:31:07.763Z,79.50
2022-09-20T06:33:44.869Z,80.32
2022-09-20T06:36:34.072Z,81.02
2022-09-20T06:39:52.618Z,82.74
2022-09-20T06:42:19.119Z,82.32
2022-09-20T06:44:45.550Z,83.56
2022-09-20T06:47:13.792Z,84.54
2022-09-20T06:49:44.459Z,84.57
2022-09-20T06:52:14.632Z,84.45
2022-09-20T06:54:45.578Z,84.21
2022-09-20T06:57:18.457Z,84.72
2022-09-20T06:59:45.668Z,86.00
2022-09-20T07:02:12.270Z,87.30
2022-09-20T07:04:39.026Z,88.72
2022-09-20T07:07:09.442Z,89.25
2022-09-20T07:09:36.235Z,90.36
2022-09-20T07:12:05.343Z,90.58
2022-09-20T07:14:32.041Z,91.13
2022-09-20T07:16:58.553Z,91.14
2022-09-20T07:19:25.007Z,90.66
2022-09-20T07:21:51.539Z,90.50
2022-09-20T07:24:18.014Z,89.98
2022-09-20T07:27:11.484Z,89.79
2022-09-20T07:29:37.996Z,89.35
2022-09-20T07:32:04.463Z,87.69
2022-09-20T07:34:30.910Z,87.28
2022-09-20T07:36:59.036Z,85.64
2022-09-20T07:39:26.052Z,84.73
2022-09-20T07:41:53.066Z,83.37
2022-09-20T07:44:24.404Z,82.35
2022-09-20T07:46:52.684Z,81.67
2022-09-20T07:49:19.648Z,81.00
2022-09-20T07:51:46.160Z,79.76
2022-09-20T07:54:12.710Z,79.80
2022-09-20T07:56:39.352Z,78.88
2022-09-20T07:59:06.122Z,77.23
2022-09-20T08:01:32.772Z,74.97
2022-09-20T08:03:59.531Z,76.25
2022-09-20T08:06:26.752Z,75.54
2022-09-20T08:08:53.262Z,75.63
2022-09-20T08:11:27.828Z,74.05
2022-09-20T08:14:11.055Z,73.23
2022-09-20T08:16:40.020Z,71.73
2022-09-20T08:19:06.837Z,70.27
2022-09-20T08:21:34.759Z,71.62
2022-09-20T08:24:01.472Z,72.00
2022-09-20T08:26:28.897Z,70.93
2022-09-20T08:28:57.608Z,70.02
2022-09-20T08:31:26.669Z,69.86
2022-09-20T08:33:54.248Z,69.90
2022-09-20T08:36:23.886Z,68.95
2022-09-20T08:41:47.400Z,69.85
2022-09-20T08:44:27.551Z,69.32
2022-09-20T08:47:22.448Z,69.21
2022-09-20T08:49:56.936Z,67.14
2022-09-20T08:52:36.207Z,68.58
2022-09-20T08:55:16.730Z,68.59
2022-09-20T08:57:44.584Z,68.80
2022-09-20T09:00:17.541Z,67.82
2022-09-20T09:02:44.036Z,67.54
2022-09-20T09:05:26.476Z,66.61
2022-09-20T09:07:52.935Z,66.66
2022-09-20T09:10:19.439Z,66.15
2022-09-20T09:12:48.853Z,65.17
2022-09-20T09:15:24.286Z,66.11
2022-09-20T09:17:50.734Z,65.84
2022-09-20T09:20:21.672Z,65.44
2022-09-20T09:22:58.751Z,65.94
2022-09-20T09:25:39.025Z,64.68
2022-09-20T09:28:08.454Z,64.46
2022-09-20T09:30:46.079Z,64.83
2022-09-20T09:33:28.061Z,64.68
2022-09-20T09:35:59.435Z,64.12
2022-09-20T09:38:31.646Z,64.47
2022-09-20T09:41:29.777Z,62.89
2022-09-20T09:44:09.851Z,64.45
2022-09-20T09:46:39.405Z,64.43
2022-09-20T09:49:13.767Z,65.06
2022-09-20T09:51:43.075Z,63.80
2022-09-20T09:54:17.192Z,62.80
2022-09-20T09:57:20.851Z,61.99
2022-09-20T10:00:14.502Z,62.55
2022-09-20T10:03:21.540Z,62.45
2022-09-20T10:06:19.838Z,63.94
2022-09-20T10:09:05.531Z,64.36
2022-09-20T10:12:09.458Z,63.69
2022-09-20T10:14:46.100Z,62.38
2022-09-20T10:17:29.440Z,62.83
2022-09-20T10:20:25.287Z,62.44
2022-09-20T10:23:30.029Z,61.83
2022-09-20T10:25:53.502Z,61.69
2022-09-20T10:28:31.971Z,61.61
2022-09-20T10:31:16.303Z,61.31
2022-09-20T10:33:46.403Z,62.11
2022-09-20T10:36:22.115Z,62.32
2022-09-20T10:39:01.968Z,60.51
2022-09-20T10:41:53.909Z,58.89
2022-09-20T10:44:20.616Z,60.18
2022-09-20T10:47:02.339Z,59.29
2022-09-20T10:49:46.080Z,57.42
2022-09-20T10:52:45.968Z,59.11
2022-09-20T10:55:33.443Z,58.98
2022-09-20T10:58:24.599Z,58.78
2022-09-20T11:01:02.138Z,59.84
2022-09-20T11:03:50.437Z,59.72
2022-09-20T11:06:25.979Z,59.38
2022-09-20T11:08:56.275Z,58.82
2022-09-20T11:11:26.668Z,57.15
2022-09-20T11:14:03.843Z,54.36
2022-09-20T11:16:38.242Z,54.53
2022-09-20T11:19:26.876Z,56.07
2022-09-20T11:22:02.087Z,56.48
2022-09-20T11:24:35.830Z,53.37
2022-09-20T11:27:15.365Z,53.53
2022-09-20T11:29:44.701Z,55.28
2022-09-20T11:32:16.968Z,56.17
2022-09-20T11:34:56.299Z,53.90
2022-09-20T11:37:28.274Z,53.02
2022-09-20T11:39:55.363Z,52.37
2022-09-20T11:42:28.655Z,53.24
2022-09-20T11:44:55.378Z,52.00
2022-09-20T11:47:49.906Z,51.64
2022-09-20T11:50:11.936Z,53.31
2022-09-20T11:52:57.605Z,52.86
2022-09-20T11:55:39.194Z,51.35
2022-09-20T11:58:11.719Z,49.07
2022-09-20T12:00:44.096Z,50.90
2022-09-20T12:03:36.684Z,50.99
2022-09-20T12:06:05.368Z,49.92
2022-09-20T12:08:39.242Z,51.46
2022-09-20T12:11:11.186Z,50.17
2022-09-20T12:13:40.263Z,49.11
2022-09-20T12:16:09.696Z,50.47
2022-09-20T12:18:46.027Z,46.94
2022-09-20T12:21:17.913Z,46.00
2022-09-20T12:24:00.592Z,49.31
2022-09-20T12:26:26.967Z,46.57
2022-09-20T12:28:58.717Z,47.17
2022-09-20T12:31:26.144Z,47.27
2022-09-20T12:34:18.625Z,47.25
2022-09-20T12:36:54.433Z,47.05
2022-09-20T12:39:32.285Z,47.99
2022-09-20T12:42:10.799Z,49.23
2022-09-20T12:44:49.445Z,49.41
2022-09-20T12:47:22.647Z,49.52
2022-09-20T12:50:09.746Z,48.95
2022-09-20T12:53:04.079Z,48.43
2022-09-20T12:55:56.201Z,49.13
2022-09-20T12:58:48.660Z,46.70
2022-09-20T13:01:15.102Z,45.39
2022-09-20T13:03:49.871Z,45.36
2022-09-20T13:06:17.426Z,45.72
2022-09-20T13:08:48.633Z,42.91
2022-09-20T13:11:30.417Z,43.40
2022-09-20T13:14:06.094Z,43.83
2022-09-20T13:16:52.916Z,42.09
2022-09-20T13:19:34.624Z,40.45
2022-09-20T13:22:02.567Z,42.45
2022-09-20T13:24:35.579Z,42.85
2022-09-20T13:27:06.545Z,43.03
2022-09-20T13:29:37.463Z,42.12
2022-09-20T13:32:24.200Z,41.05
2022-09-20T13:35:12.341Z,40.89
2022-09-20T13:37:44.678Z,40.81
2022-09-20T13:40:19.244Z,38.32
2022-09-20T13:42:49.741Z,40.20
2022-09-20T13:45:17.019Z,40.49
2022-09-20T13:47:44.715Z,41.00
2022-09-20T13:50:18.693Z,39.94
2022-09-20T13:52:52.311Z,40.49
2022-09-20T13:55:21.277Z,40.79
2022-09-20T13:57:48.328Z,38.70
2022-09-20T14:00:15.472Z,39.18
2022-09-20T14:02:42.053Z,39.20
2022-09-20T14:05:15.986Z,41.33
2022-09-20T14:07:45.290Z,42.12
2022-09-20T14:10:50.721Z,41.10
2022-09-20T14:13:18.306Z,38.50
2022-09-20T14:15:46.435Z,40.82
2022-09-20T14:18:22.438Z,39.11
2022-09-20T14:20:48.967Z,39.58
2022-09-20T14:23:22.472Z,39.63
2022-09-20T14:26:05.266Z,40.67
2022-09-20T14:28:31.734Z,37.40
2022-09-20T14:31:16.520Z,37.51
2022-09-20T14:33:46.118Z,37.44
2022-09-20T14:36:15.422Z,38.67
2022-09-20T14:38:47.115Z,37.31
2022-09-20T14:41:13.783Z,40.12
2022-09-20T14:43:41.025Z,41.67
2022-09-20T14:46:17.081Z,42.64
2022-09-20T14:48:45.348Z,42.80
2022-09-20T14:51:25.422Z,43.70
2022-09-20T14:54:04.318Z,44.46
2022-09-20T14:56:36.579Z,45.11
2022-09-20T14:59:06.737Z,45.82
2022-09-20T15:01:34.655Z,47.05
2022-09-20T15:04:07.709Z,47.47
2022-09-20T15:06:38.905Z,47.61
2022-09-20T15:09:05.627Z,48.88
2022-09-20T15:11:33.298Z,50.09
2022-09-20T15:13:59.788Z,50.85
2022-09-20T15:16:27.509Z,51.73
2022-09-20T15:18:54.826Z,50.85
2022-09-20T15:21:21.743Z,50.63
2022-09-20T15:23:48.452Z,51.86
2022-09-20T15:26:15.271Z,53.03
2022-09-20T15:31:34.560Z,53.20
2022-09-20T15:34:01.301Z,54.22
2022-09-20T15:36:32.113Z,53.45
2022-09-20T15:39:09.850Z,53.04
2022-09-20T15:41:36.479Z,52.03
2022-09-20T15:44:04.555Z,52.05
2022-09-20T15:46:31.959Z,52.82
2022-09-20T15:49:00.757Z,52.74
2022-09-20T15:51:28.393Z,53.21
2022-09-20T15:57:05.281Z,55.74
2022-09-20T15:59:34.459Z,55.67
2022-09-20T16:02:01.260Z,54.30
2022-09-20T16:04:27.977Z,54.14
2022-09-20T16:06:54.506Z,52.84
2022-09-20T16:09:21.099Z,53.58
2022-09-20T16:11:48.240Z,53.88
2022-09-20T16:14:15.091Z,54.71
2022-09-20T16:16:47.990Z,54.96
2022-09-20T16:19:17.419Z,54.23
2022-09-20T16:25:04.654Z,55.63
2022-09-20T16:27:34.111Z,57.07
2022-09-20T16:30:02.220Z,58.30
2022-09-20T16:32:28.729Z,58.83
2022-09-20T16:34:55.223Z,59.85
2022-09-20T16:37:22.791Z,60.67
2022-09-20T16:39:49.246Z,61.02
2022-09-20T16:42:16.984Z,61.46
2022-09-20T16:44:43.441Z,62.18
2022-09-20T16:47:11.979Z,62.36
2022-09-20T16:49:38.558Z,63.01
2022-09-20T16:52:06.164Z,63.53
2022-09-20T16:54:33.723Z,63.77
2022-09-20T16:57:02.563Z,63.94
2022-09-20T16:59:29.067Z,64.96
2022-09-20T17:01:55.642Z,64.69
2022-09-20T17:04:24.197Z,65.51
2022-09-20T17:06:51.414Z,65.42
2022-09-20T17:09:17.887Z,65.33
2022-09-20T17:11:46.183Z,65.21
2022-09-20T17:14:13.428Z,66.07
2022-09-20T17:16:41.463Z,66.43
2022-09-20T17:19:12.684Z,67.39
2022-09-20T17:21:43.295Z,67.53
2022-09-20T17:24:10.857Z,68.00
2022-09-20T17:26:40.213Z,68.63
2022-09-20T17:29:09.773Z,69.52
2022-09-20T17:31:41.654Z,69.44
2022-09-20T17:34:10.054Z,70.44
2022-09-20T17:36:41.755Z,70.82
2022-09-20T17:39:12.884Z,71.62
2022-09-20T17:41:41.303Z,71.76
2022-09-20T17:44:09.836Z,72.33
2022-09-20T17:46:38.514Z,72.88
2022-09-20T17:49:08.115Z,73.12
2022-09-20T17:51:44.648Z,74.00
2022-09-20T17:54:14.543Z,73.99
2022-09-20T17:56:43.410Z,74.24
2022-09-20T17:59:10.991Z,74.28
2022-09-20T18:01:38.517Z,74.51
2022-09-20T18:04:06.338Z,74.95
2022-09-20T18:06:38.656Z,75.14
2022-09-20T18:09:07.710Z,75.96
2022-09-20T18:11:40.319Z,76.40
2022-09-20T18:14:08.286Z,76.34
2022-09-20T18:16:35.098Z,76.13
2022-09-20T18:19:01.967Z,76.45
2022-09-20T18:21:29.599Z,76.55
2022-09-20T18:23:57.107Z,76.77
2022-09-20T18:26:25.770Z,76.41
2022-09-20T18:29:00.167Z,77.38
2022-09-20T18:31:32.119Z,77.49
2022-09-20T18:34:02.449Z,78.10
2022-09-20T18:36:30.275Z,78.20
2022-09-20T18:38:58.084Z,78.51
2022-09-20T18:41:26.593Z,78.57
2022-09-20T18:43:54.558Z,79.12
2022-09-20T18:46:24.746Z,78.88
2022-09-20T18:49:05.408Z,79.82
2022-09-20T18:51:35.820Z,80.21
2022-09-20T18:54:05.468Z,80.68
2022-09-20T18:56:34.535Z,81.01
2022-09-20T18:59:04.034Z,81.25
2022-09-20T19:01:55.568Z,81.64
2022-09-20T19:04:46.878Z,82.70
2022-09-20T19:07:41.335Z,82.75
2022-09-20T19:10:37.355Z,82.43
2022-09-20T19:13:42.028Z,82.84
2022-09-20T19:16:20.448Z,83.71
2022-09-20T19:19:06.230Z,84.21
2022-09-20T19:21:58.766Z,85.27
2022-09-20T19:24:50.783Z,85.13
2022-09-20T19:27:17.304Z,85.92
2022-09-20T19:29:44.000Z,86.29
2022-09-20T19:32:17.291Z,86.09
2022-09-20T19:34:44.482Z,86.20
2022-09-20T19:37:26.163Z,86.46
2022-09-20T19:40:32.841Z,87.17
2022-09-20T19:43:24.030Z,86.75
2022-09-20T19:46:20.451Z,86.66
2022-09-20T19:48:54.989Z,86.59
2022-09-20T19:51:22.322Z,86.61
2022-09-20T19:53:49.880Z,87.05
2022-09-20T19:56:27.607Z,87.14
2022-09-20T19:58:55.976Z,86.66
2022-09-20T20:01:23.819Z,87.43
2022-09-20T20:03:51.207Z,87.05
2022-09-20T20:06:33.334Z,88.09
2022-09-20T20:09:08.975Z,89.55
2022-09-20T20:11:56.406Z,90.66
2022-09-20T20:14:51.618Z,92.27
2022-09-20T20:17:46.154Z,94.28
2022-09-20T20:20:54.152Z,94.58
2022-09-20T20:23:27.856Z,94.27
2022-09-20T20:26:02.872Z,94.02
2022-09-20T20:28:30.158Z,93.60
2022-09-20T20:31:00.140Z,92.92
2022-09-20T20:33:28.958Z,91.52
2022-09-20T20:35:56.952Z,90.79
2022-09-20T20:38:26.399Z,90.14
2022-09-20T20:41:05.117Z,90.29
2022-09-20T20:43:36.326Z,90.11
2022-09-20T20:46:04.157Z,89.71
2022-09-20T20:48:30.751Z,89.51
2022-09-20T20:51:01.855Z,89.93
2022-09-20T20:53:36.252Z,89.51
2022-09-20T20:56:07.089Z,88.91
2022-09-20T20:58:34.827Z,89.03
2022-09-20T21:01:21.647Z,88.89
2022-09-20T21:03:50.002Z,90.17
2022-09-20T21:06:17.094Z,91.16
2022-09-20T21:08:48.992Z,92.97
2022-09-20T21:11:18.604Z,94.26
2022-09-20T21:13:46.990Z,93.76
2022-09-20T21:16:15.830Z,91.79
2022-09-20T21:18:43.515Z,90.41
2022-09-20T21:21:24.770Z,90.37
2022-09-20T21:23:53.059Z,90.15
2022-09-20T21:26:20.584Z,90.45
2022-09-20T21:28:52.109Z,91.10
2022-09-20T21:31:20.657Z,91.90
2022-09-20T21:33:47.300Z,92.24
2022-09-20T21:36:15.975Z,92.07
2022-09-20T21:38:43.814Z,91.67
2022-09-20T21:41:14.382Z,91.34
2022-09-20T21:43:42.761Z,90.92
2022-09-20T21:46:19.726Z,90.50
2022-09-20T21:48:47.549Z,90.08
2022-09-20T21:51:16.753Z,89.34
2022-09-20T21:53:43.314Z,88.54
2022-09-20T21:56:11.939Z,88.91
2022-09-20T21:58:41.215Z,88.97
2022-09-20T22:01:11.472Z,88.65
2022-09-20T22:03:39.127Z,88.73
2022-09-20T22:06:11.446Z,88.67
2022-09-20T22:08:39.781Z,88.01
2022-09-20T22:11:10.220Z,87.65
2022-09-20T22:13:40.128Z,88.11
2022-09-20T22:16:09.535Z,88.30
2022-09-20T22:18:38.244Z,88.25
2022-09-20T22:21:08.073Z,88.75
2022-09-20T22:23:35.134Z,89.13
2022-09-20T22:26:13.194Z,89.45
2022-09-20T22:28:40.491Z,89.79
2022-09-20T22:31:14.986Z,89.91
2022-09-20T22:33:43.259Z,89.91
2022-09-20T22:36:11.023Z,90.37
2022-09-20T22:38:37.490Z,90.82
2022-09-20T22:41:03.964Z,92.21
2022-09-20T22:43:32.565Z,93.69
2022-09-20T22:46:04.520Z,95.22
2022-09-20T22:48:32.088Z,95.63
2022-09-20T22:51:18.425Z,95.88
2022-09-20T22:53:45.450Z,95.05
2022-09-20T22:56:19.203Z,93.76
2022-09-20T22:58:47.826Z,93.50
2022-09-20T23:01:25.547Z,93.66
2022-09-20T23:03:56.700Z,93.03
2022-09-20T23:06:29.146Z,93.80
2022-09-20T23:08:57.494Z,95.26
2022-09-20T23:11:24.389Z,95.50
2022-09-20T23:13:56.133Z,94.87
2022-09-20T23:16:25.181Z,94.64
2022-09-20T23:18:53.052Z,94.97
2022-09-20T23:21:19.899Z,96.09
2022-09-20T23:23:48.013Z,96.57
2022-09-20T23:26:18.496Z,96.87
2022-09-20T23:28:46.876Z,96.91
2022-09-20T23:31:17.279Z,97.11
2022-09-20T23:33:51.515Z,97.38
2022-09-20T23:36:19.063Z,97.45
2022-09-20T23:38:45.979Z,96.68
2022-09-20T23:41:13.972Z,96.40
2022-09-20T23:43:41.363Z,96.27
2022-09-20T23:46:09.555Z,95.34
2022-09-20T23:48:36.323Z,95.42
2022-09-20T23:51:04.075Z,94.65
2022-09-20T23:53:30.535Z,94.72
2022-09-20T23:55:56.973Z,94.10
2022-09-20T23:58:23.510Z,93.88
